sensor_id;sensor_type;location;lat;lon;timestamp;P1;durP1;ratioP1;P2;durP2;ratioP2
673;SDS011;319;48.764;9.174;2024-02-16T00:01:21;5.50;;;5.40;;
673;SDS011;319;48.764;9.174;2024-02-16T00:03:48;5.57;;;5.47;;
673;SDS011;319;48.764;9.174;2024-02-16T00:06:17;6.40;;;6.30;;
673;SDS011;319;48.764;9.174;2024-02-16T00:08:43;5.33;;;5.23;;
673;SDS011;319;48.764;9.174;2024-02-16T00:11:09;5.90;;;5.80;;
673;SDS011;319;48.764;9.174;2024-02-16T00:13:42;5.90;;;5.80;;
673;SDS011;319;48.764;9.174;2024-02-16T00:16:09;5.60;;;5.50;;
673;SDS011;319;48.764;9.174;2024-02-16T00:18:36;6.00;;;5.90;;
673;SDS011;319;48.764;9.174;2024-02-16T00:21:03;6.00;;;5.90;;
673;SDS011;319;48.764;9.174;2024-02-16T00:23:32;6.30;;;6.20;;
673;SDS011;319;48.764;9.174;2024-02-16T00:25:59;6.33;;;6.23;;
673;SDS011;319;48.764;9.174;2024-02-16T00:28:26;5.90;;;5.80;;
673;SDS011;319;48.764;9.174;2024-02-16T00:30:53;4.77;;;4.67;;
673;SDS011;319;48.764;9.174;2024-02-16T00:33:20;4.53;;;4.43;;
673;SDS011;319;48.764;9.174;2024-02-16T00:35:47;3.90;;;3.80;;
673;SDS011;319;48.764;9.174;2024-02-16T00:38:14;4.13;;;4.03;;
673;SDS011;319;48.764;9.174;2024-02-16T00:40:43;4.50;;;4.40;;
673;SDS011;319;48.764;9.174;2024-02-16T00:43:10;4.80;;;4.70;;
673;SDS011;319;48.764;9.174;2024-02-16T00:45:37;4.30;;;4.20;;
673;SDS011;319;48.764;9.174;2024-02-16T00:48:06;4.30;;;4.20;;
673;SDS011;319;48.764;9.174;2024-02-16T00:50:33;4.60;;;4.50;;
673;SDS011;319;48.764;9.174;2024-02-16T00:53:00;4.53;;;4.43;;
673;SDS011;319;48.764;9.174;2024-02-16T00:55:27;5.13;;;5.03;;
673;SDS011;319;48.764;9.174;2024-02-16T00:57:55;5.10;;;5.00;;
673;SDS011;319;48.764;9.174;2024-02-16T01:00:22;4.70;;;4.60;;
673;SDS011;319;48.764;9.174;2024-02-16T01:02:49;5.23;;;5.13;;
673;SDS011;319;48.764;9.174;2024-02-16T01:05:17;5.20;;;5.10;;
673;SDS011;319;48.764;9.174;2024-02-16T01:07:44;4.70;;;4.60;;
673;SDS011;319;48.764;9.174;2024-02-16T01:10:11;4.70;;;4.60;;
673;SDS011;319;48.764;9.174;2024-02-16T01:12:38;4.80;;;4.70;;
673;SDS011;319;48.764;9.174;2024-02-16T01:15:07;5.23;;;5.13;;
673;SDS011;319;48.764;9.174;2024-02-16T01:17:34;4.60;;;4.50;;
673;SDS011;319;48.764;9.174;2024-02-16T01:20:01;5.30;;;5.20;;
673;SDS011;319;48.764;9.174;2024-02-16T01:22:29;5.20;;;5.10;;
673;SDS011;319;48.764;9.174;2024-02-16T01:24:56;5.10;;;5.00;;
673;SDS011;319;48.764;9.174;2024-02-16T01:27:23;5.07;;;4.97;;
673;SDS011;319;48.764;9.174;2024-02-16T01:29:50;4.70;;;4.60;;
673;SDS011;319;48.764;9.174;2024-02-16T01:32:18;5.50;;;5.40;;
673;SDS011;319;48.764;9.174;2024-02-16T01:34:45;4.60;;;4.50;;
673;SDS011;319;48.764;9.174;2024-02-16T01:37:14;4.70;;;4.60;;
673;SDS011;319;48.764;9.174;2024-02-16T01:39:41;4.80;;;4.70;;
673;SDS011;319;48.764;9.174;2024-02-16T01:42:08;4.60;;;4.50;;
673;SDS011;319;48.764;9.174;2024-02-16T01:44:35;5.10;;;5.00;;
673;SDS011;319;48.764;9.174;2024-02-16T01:47:02;5.40;;;5.30;;
673;SDS011;319;48.764;9.174;2024-02-16T01:49:31;5.40;;;5.30;;
673;SDS011;319;48.764;9.174;2024-02-16T01:51:59;6.00;;;5.90;;
673;SDS011;319;48.764;9.174;2024-02-16T01:54:26;5.70;;;5.60;;
673;SDS011;319;48.764;9.174;2024-02-16T01:56:53;5.60;;;5.50;;
673;SDS011;319;48.764;9.174;2024-02-16T01:59:21;5.77;;;5.67;;
673;SDS011;319;48.764;9.174;2024-02-16T02:01:49;5.97;;;5.87;;
673;SDS011;319;48.764;9.174;2024-02-16T02:04:16;5.20;;;5.10;;
673;SDS011;319;48.764;9.174;2024-02-16T02:06:44;5.50;;;5.40;;
673;SDS011;319;48.764;9.174;2024-02-16T02:09:11;5.10;;;5.00;;
673;SDS011;319;48.764;9.174;2024-02-16T02:11:38;4.73;;;4.63;;
673;SDS011;319;48.764;9.174;2024-02-16T02:14:05;5.20;;;5.10;;
673;SDS011;319;48.764;9.174;2024-02-16T02:16:32;5.50;;;5.40;;
673;SDS011;319;48.764;9.174;2024-02-16T02:18:59;5.60;;;5.50;;
673;SDS011;319;48.764;9.174;2024-02-16T02:21:26;4.70;;;4.60;;
673;SDS011;319;48.764;9.174;2024-02-16T02:23:54;4.90;;;4.80;;
673;SDS011;319;48.764;9.174;2024-02-16T02:26:21;4.50;;;4.40;;
673;SDS011;319;48.764;9.174;2024-02-16T02:28:48;4.80;;;4.70;;
673;SDS011;319;48.764;9.174;2024-02-16T02:31:15;4.93;;;4.83;;
673;SDS011;319;48.764;9.174;2024-02-16T02:33:42;4.80;;;4.70;;
673;SDS011;319;48.764;9.174;2024-02-16T02:36:09;4.90;;;4.80;;
673;SDS011;319;48.764;9.174;2024-02-16T02:38:36;4.63;;;4.53;;
673;SDS011;319;48.764;9.174;2024-02-16T02:41:04;5.00;;;4.90;;
673;SDS011;319;48.764;9.174;2024-02-16T02:43:31;4.67;;;4.57;;
673;SDS011;319;48.764;9.174;2024-02-16T02:45:58;4.60;;;4.50;;
673;SDS011;319;48.764;9.174;2024-02-16T02:48:25;4.70;;;4.60;;
673;SDS011;319;48.764;9.174;2024-02-16T02:50:52;4.70;;;4.60;;
673;SDS011;319;48.764;9.174;2024-02-16T02:53:18;4.50;;;4.40;;
673;SDS011;319;48.764;9.174;2024-02-16T02:55:46;4.40;;;4.30;;
673;SDS011;319;48.764;9.174;2024-02-16T02:58:15;4.50;;;4.40;;
673;SDS011;319;48.764;9.174;2024-02-16T03:00:43;4.40;;;4.30;;
673;SDS011;319;48.764;9.174;2024-02-16T03:03:10;4.40;;;4.30;;
673;SDS011;319;48.764;9.174;2024-02-16T03:05:40;4.20;;;4.10;;
673;SDS011;319;48.764;9.174;2024-02-16T03:08:08;4.30;;;4.20;;
673;SDS011;319;48.764;9.174;2024-02-16T03:10:36;4.17;;;4.07;;
673;SDS011;319;48.764;9.174;2024-02-16T03:13:03;4.30;;;4.20;;
673;SDS011;319;48.764;9.174;2024-02-16T03:15:33;4.33;;;4.23;;
673;SDS011;319;48.764;9.174;2024-02-16T03:18:00;4.60;;;4.50;;
673;SDS011;319;48.764;9.174;2024-02-16T03:20:27;4.30;;;4.20;;
673;SDS011;319;48.764;9.174;2024-02-16T03:22:55;4.57;;;4.47;;
673;SDS011;319;48.764;9.174;2024-02-16T03:25:22;4.50;;;4.40;;
673;SDS011;319;48.764;9.174;2024-02-16T03:27:50;4.80;;;4.70;;
673;SDS011;319;48.764;9.174;2024-02-16T03:30:18;4.73;;;4.63;;
673;SDS011;319;48.764;9.174;2024-02-16T03:32:48;4.40;;;4.30;;
673;SDS011;319;48.764;9.174;2024-02-16T03:35:15;4.60;;;4.50;;
673;SDS011;319;48.764;9.174;2024-02-16T03:37:42;4.20;;;4.10;;
673;SDS011;319;48.764;9.174;2024-02-16T03:40:10;4.60;;;4.50;;
673;SDS011;319;48.764;9.174;2024-02-16T03:42:38;4.50;;;4.40;;
673;SDS011;319;48.764;9.174;2024-02-16T03:45:06;4.60;;;4.50;;
673;SDS011;319;48.764;9.174;2024-02-16T03:47:33;4.70;;;4.60;;
673;SDS011;319;48.764;9.174;2024-02-16T03:50:01;5.20;;;5.10;;
673;SDS011;319;48.764;9.174;2024-02-16T03:52:29;4.40;;;4.30;;
673;SDS011;319;48.764;9.174;2024-02-16T03:54:56;4.37;;;4.27;;
673;SDS011;319;48.764;9.174;2024-02-16T03:57:23;4.23;;;4.13;;
673;SDS011;319;48.764;9.174;2024-02-16T03:59:50;4.67;;;4.57;;
673;SDS011;319;48.764;9.174;2024-02-16T04:02:16;4.60;;;4.50;;
673;SDS011;319;48.764;9.174;2024-02-16T04:04:43;4.70;;;4.60;;
673;SDS011;319;48.764;9.174;2024-02-16T04:07:12;4.57;;;4.47;;
673;SDS011;319;48.764;9.174;2024-02-16T04:09:39;4.53;;;4.43;;
673;SDS011;319;48.764;9.174;2024-02-16T04:12:06;3.90;;;3.80;;
673;SDS011;319;48.764;9.174;2024-02-16T04:14:34;4.70;;;4.60;;
673;SDS011;319;48.764;9.174;2024-02-16T04:17:01;4.57;;;4.47;;
673;SDS011;319;48.764;9.174;2024-02-16T04:19:28;4.60;;;4.50;;
673;SDS011;319;48.764;9.174;2024-02-16T04:21:55;3.97;;;3.87;;
673;SDS011;319;48.764;9.174;2024-02-16T04:24:23;4.63;;;4.53;;
673;SDS011;319;48.764;9.174;2024-02-16T04:26:50;4.20;;;4.10;;
673;SDS011;319;48.764;9.174;2024-02-16T04:29:17;5.07;;;4.97;;
673;SDS011;319;48.764;9.174;2024-02-16T04:31:44;4.97;;;4.87;;
673;SDS011;319;48.764;9.174;2024-02-16T04:34:11;4.90;;;4.80;;
673;SDS011;319;48.764;9.174;2024-02-16T04:36:40;4.60;;;4.50;;
673;SDS011;319;48.764;9.174;2024-02-16T04:39:07;4.50;;;4.40;;
673;SDS011;319;48.764;9.174;2024-02-16T04:41:36;4.53;;;4.43;;
673;SDS011;319;48.764;9.174;2024-02-16T04:44:03;4.90;;;4.80;;
673;SDS011;319;48.764;9.174;2024-02-16T04:46:30;4.70;;;4.60;;
673;SDS011;319;48.764;9.174;2024-02-16T04:48:57;6.00;;;5.90;;
673;SDS011;319;48.764;9.174;2024-02-16T04:51:24;5.63;;;5.53;;
673;SDS011;319;48.764;9.174;2024-02-16T04:53:51;4.63;;;4.53;;
673;SDS011;319;48.764;9.174;2024-02-16T04:56:17;5.10;;;5.00;;
673;SDS011;319;48.764;9.174;2024-02-16T04:58:47;5.50;;;5.40;;
673;SDS011;319;48.764;9.174;2024-02-16T05:01:13;4.53;;;4.43;;
673;SDS011;319;48.764;9.174;2024-02-16T05:03:40;5.47;;;5.37;;
673;SDS011;319;48.764;9.174;2024-02-16T05:06:07;5.40;;;5.30;;
673;SDS011;319;48.764;9.174;2024-02-16T05:08:34;5.97;;;5.87;;
673;SDS011;319;48.764;9.174;2024-02-16T05:11:01;6.30;;;6.20;;
673;SDS011;319;48.764;9.174;2024-02-16T05:13:28;5.43;;;5.33;;
673;SDS011;319;48.764;9.174;2024-02-16T05:15:56;5.53;;;5.43;;
673;SDS011;319;48.764;9.174;2024-02-16T05:18:23;5.33;;;5.23;;
673;SDS011;319;48.764;9.174;2024-02-16T05:20:50;4.93;;;4.83;;
673;SDS011;319;48.764;9.174;2024-02-16T05:23:17;4.70;;;4.60;;
673;SDS011;319;48.764;9.174;2024-02-16T05:25:44;5.67;;;5.57;;
673;SDS011;319;48.764;9.174;2024-02-16T05:28:11;5.10;;;5.00;;
673;SDS011;319;48.764;9.174;2024-02-16T05:30:39;5.70;;;5.60;;
673;SDS011;319;48.764;9.174;2024-02-16T05:33:07;5.40;;;5.30;;
673;SDS011;319;48.764;9.174;2024-02-16T05:35:34;5.37;;;5.27;;
673;SDS011;319;48.764;9.174;2024-02-16T05:38:05;5.60;;;5.50;;
673;SDS011;319;48.764;9.174;2024-02-16T05:40:45;6.10;;;6.00;;
673;SDS011;319;48.764;9.174;2024-02-16T05:43:18;4.90;;;4.80;;
673;SDS011;319;48.764;9.174;2024-02-16T05:45:45;4.90;;;4.80;;
673;SDS011;319;48.764;9.174;2024-02-16T05:48:13;5.13;;;5.03;;
673;SDS011;319;48.764;9.174;2024-02-16T05:50:40;5.90;;;5.80;;
673;SDS011;319;48.764;9.174;2024-02-16T05:53:08;5.70;;;5.60;;
673;SDS011;319;48.764;9.174;2024-02-16T05:55:36;5.20;;;5.10;;
673;SDS011;319;48.764;9.174;2024-02-16T05:58:03;5.70;;;5.60;;
673;SDS011;319;48.764;9.174;2024-02-16T06:00:31;5.10;;;5.00;;
673;SDS011;319;48.764;9.174;2024-02-16T06:02:59;5.40;;;5.30;;
673;SDS011;319;48.764;9.174;2024-02-16T06:05:28;5.40;;;5.30;;
673;SDS011;319;48.764;9.174;2024-02-16T06:07:55;6.00;;;5.90;;
673;SDS011;319;48.764;9.174;2024-02-16T06:10:24;6.03;;;5.93;;
673;SDS011;319;48.764;9.174;2024-02-16T06:12:51;5.87;;;5.77;;
673;SDS011;319;48.764;9.174;2024-02-16T06:15:17;5.90;;;5.80;;
673;SDS011;319;48.764;9.174;2024-02-16T06:17:44;4.83;;;4.73;;
673;SDS011;319;48.764;9.174;2024-02-16T06:20:11;4.67;;;4.57;;
673;SDS011;319;48.764;9.174;2024-02-16T06:22:40;5.40;;;5.30;;
673;SDS011;319;48.764;9.174;2024-02-16T06:25:07;5.50;;;5.40;;
673;SDS011;319;48.764;9.174;2024-02-16T06:27:34;5.33;;;5.23;;
673;SDS011;319;48.764;9.174;2024-02-16T06:30:01;6.10;;;6.00;;
673;SDS011;319;48.764;9.174;2024-02-16T06:32:30;5.30;;;5.20;;
673;SDS011;319;48.764;9.174;2024-02-16T06:34:57;5.40;;;5.30;;
673;SDS011;319;48.764;9.174;2024-02-16T06:37:24;5.10;;;5.00;;
673;SDS011;319;48.764;9.174;2024-02-16T06:39:52;5.10;;;5.00;;
673;SDS011;319;48.764;9.174;2024-02-16T06:42:19;6.07;;;5.97;;
673;SDS011;319;48.764;9.174;2024-02-16T06:44:46;5.00;;;4.90;;
673;SDS011;319;48.764;9.174;2024-02-16T06:47:13;5.67;;;5.57;;
673;SDS011;319;48.764;9.174;2024-02-16T06:49:40;5.97;;;5.87;;
673;SDS011;319;48.764;9.174;2024-02-16T06:52:07;5.33;;;5.23;;
673;SDS011;319;48.764;9.174;2024-02-16T06:54:34;5.87;;;5.77;;
673;SDS011;319;48.764;9.174;2024-02-16T06:57:03;5.87;;;5.77;;
673;SDS011;319;48.764;9.174;2024-02-16T06:59:30;5.50;;;5.40;;
673;SDS011;319;48.764;9.174;2024-02-16T07:01:57;5.67;;;5.57;;
673;SDS011;319;48.764;9.174;2024-02-16T07:04:24;4.53;;;4.43;;
673;SDS011;319;48.764;9.174;2024-02-16T07:06:54;5.27;;;5.17;;
673;SDS011;319;48.764;9.174;2024-02-16T07:09:21;5.70;;;5.60;;
673;SDS011;319;48.764;9.174;2024-02-16T07:11:47;5.33;;;5.23;;
673;SDS011;319;48.764;9.174;2024-02-16T07:14:16;6.00;;;5.90;;
673;SDS011;319;48.764;9.174;2024-02-16T07:16:43;5.20;;;5.10;;
673;SDS011;319;48.764;9.174;2024-02-16T07:19:10;5.70;;;5.60;;
673;SDS011;319;48.764;9.174;2024-02-16T07:21:37;5.83;;;5.73;;
673;SDS011;319;48.764;9.174;2024-02-16T07:24:07;5.00;;;4.90;;
673;SDS011;319;48.764;9.174;2024-02-16T07:26:36;5.90;;;5.80;;
673;SDS011;319;48.764;9.174;2024-02-16T07:29:03;5.50;;;5.40;;
673;SDS011;319;48.764;9.174;2024-02-16T07:31:33;5.40;;;5.30;;
673;SDS011;319;48.764;9.174;2024-02-16T07:34:02;5.90;;;5.80;;
673;SDS011;319;48.764;9.174;2024-02-16T07:36:29;5.20;;;5.10;;
673;SDS011;319;48.764;9.174;2024-02-16T07:38:57;5.80;;;5.70;;
673;SDS011;319;48.764;9.174;2024-02-16T07:41:24;5.83;;;5.73;;
673;SDS011;319;48.764;9.174;2024-02-16T07:43:52;6.80;;;6.60;;
673;SDS011;319;48.764;9.174;2024-02-16T07:46:19;6.20;;;6.10;;
673;SDS011;319;48.764;9.174;2024-02-16T07:48:47;5.67;;;5.57;;
673;SDS011;319;48.764;9.174;2024-02-16T07:51:14;5.60;;;5.50;;
673;SDS011;319;48.764;9.174;2024-02-16T07:53:41;5.57;;;5.47;;
673;SDS011;319;48.764;9.174;2024-02-16T07:56:11;5.27;;;5.17;;
673;SDS011;319;48.764;9.174;2024-02-16T07:58:38;5.60;;;5.50;;
673;SDS011;319;48.764;9.174;2024-02-16T08:01:08;6.10;;;6.00;;
673;SDS011;319;48.764;9.174;2024-02-16T08:03:36;5.47;;;5.37;;
673;SDS011;319;48.764;9.174;2024-02-16T08:06:04;5.60;;;5.50;;
673;SDS011;319;48.764;9.174;2024-02-16T08:08:32;5.97;;;5.87;;
673;SDS011;319;48.764;9.174;2024-02-16T08:10:59;6.47;;;6.37;;
673;SDS011;319;48.764;9.174;2024-02-16T08:13:25;5.10;;;5.00;;
673;SDS011;319;48.764;9.174;2024-02-16T08:15:52;6.17;;;6.07;;
673;SDS011;319;48.764;9.174;2024-02-16T08:18:20;5.93;;;5.83;;
673;SDS011;319;48.764;9.174;2024-02-16T08:20:47;5.93;;;5.83;;
673;SDS011;319;48.764;9.174;2024-02-16T08:23:16;6.00;;;5.90;;
673;SDS011;319;48.764;9.174;2024-02-16T08:25:43;5.80;;;5.70;;
673;SDS011;319;48.764;9.174;2024-02-16T08:28:13;5.70;;;5.60;;
673;SDS011;319;48.764;9.174;2024-02-16T08:30:40;5.33;;;5.23;;
673;SDS011;319;48.764;9.174;2024-02-16T08:33:11;5.10;;;5.00;;
673;SDS011;319;48.764;9.174;2024-02-16T08:35:38;4.83;;;4.73;;
673;SDS011;319;48.764;9.174;2024-02-16T08:38:05;8.37;;;8.17;;
673;SDS011;319;48.764;9.174;2024-02-16T08:40:36;8.53;;;8.33;;
673;SDS011;319;48.764;9.174;2024-02-16T08:43:05;8.43;;;8.23;;
673;SDS011;319;48.764;9.174;2024-02-16T08:45:32;10.67;;;10.37;;
673;SDS011;319;48.764;9.174;2024-02-16T08:47:59;10.90;;;10.60;;
673;SDS011;319;48.764;9.174;2024-02-16T08:50:29;12.80;;;12.50;;
673;SDS011;319;48.764;9.174;2024-02-16T08:52:55;12.27;;;11.97;;
673;SDS011;319;48.764;9.174;2024-02-16T08:55:22;0.90;;;0.90;;
673;SDS011;319;48.764;9.174;2024-02-16T08:57:50;1.00;;;1.00;;
673;SDS011;319;48.764;9.174;2024-02-16T09:00:18;0.90;;;0.90;;
673;SDS011;319;48.764;9.174;2024-02-16T09:02:45;0.90;;;0.90;;
673;SDS011;319;48.764;9.174;2024-02-16T09:05:12;0.90;;;0.90;;
673;SDS011;319;48.764;9.174;2024-02-16T09:07:39;0.90;;;0.90;;
673;SDS011;319;48.764;9.174;2024-02-16T09:10:06;0.90;;;0.90;;
673;SDS011;319;48.764;9.174;2024-02-16T09:12:37;0.90;;;0.90;;
673;SDS011;319;48.764;9.174;2024-02-16T09:15:06;0.87;;;0.87;;
673;SDS011;319;48.764;9.174;2024-02-16T09:17:33;0.90;;;0.90;;
673;SDS011;319;48.764;9.174;2024-02-16T09:20:00;0.87;;;0.87;;
673;SDS011;319;48.764;9.174;2024-02-16T09:22:29;0.90;;;0.90;;
673;SDS011;319;48.764;9.174;2024-02-16T09:24:56;0.90;;;0.90;;
673;SDS011;319;48.764;9.174;2024-02-16T09:27:24;1.00;;;1.00;;
673;SDS011;319;48.764;9.174;2024-02-16T09:29:53;0.90;;;0.90;;
673;SDS011;319;48.764;9.174;2024-02-16T09:32:21;0.90;;;0.90;;
673;SDS011;319;48.764;9.174;2024-02-16T09:34:48;0.90;;;0.90;;
673;SDS011;319;48.764;9.174;2024-02-16T09:37:16;0.90;;;0.90;;
673;SDS011;319;48.764;9.174;2024-02-16T09:39:42;0.90;;;0.90;;
673;SDS011;319;48.764;9.174;2024-02-16T09:42:09;0.80;;;0.80;;
673;SDS011;319;48.764;9.174;2024-02-16T09:44:39;0.80;;;0.80;;
673;SDS011;319;48.764;9.174;2024-02-16T09:47:07;0.90;;;0.90;;
673;SDS011;319;48.764;9.174;2024-02-16T09:49:39;1.33;;;1.33;;
673;SDS011;319;48.764;9.174;2024-02-16T09:52:06;0.90;;;0.90;;
673;SDS011;319;48.764;9.174;2024-02-16T09:54:37;0.90;;;0.90;;
673;SDS011;319;48.764;9.174;2024-02-16T09:57:04;0.90;;;0.90;;
673;SDS011;319;48.764;9.174;2024-02-16T09:59:31;0.87;;;0.87;;
673;SDS011;319;48.764;9.174;2024-02-16T10:01:59;0.90;;;0.90;;
673;SDS011;319;48.764;9.174;2024-02-16T10:04:26;0.90;;;0.90;;
673;SDS011;319;48.764;9.174;2024-02-16T10:06:55;0.90;;;0.90;;
673;SDS011;319;48.764;9.174;2024-02-16T10:09:22;0.90;;;0.90;;
673;SDS011;319;48.764;9.174;2024-02-16T10:11:50;0.90;;;0.90;;
673;SDS011;319;48.764;9.174;2024-02-16T10:14:17;1.00;;;1.00;;
673;SDS011;319;48.764;9.174;2024-02-16T10:16:44;0.80;;;0.80;;
673;SDS011;319;48.764;9.174;2024-02-16T10:19:11;0.90;;;0.90;;
673;SDS011;319;48.764;9.174;2024-02-16T10:21:39;0.90;;;0.90;;
673;SDS011;319;48.764;9.174;2024-02-16T10:24:08;0.90;;;0.90;;
673;SDS011;319;48.764;9.174;2024-02-16T10:26:35;0.90;;;0.90;;
673;SDS011;319;48.764;9.174;2024-02-16T10:29:03;0.80;;;0.80;;
673;SDS011;319;48.764;9.174;2024-02-16T10:31:31;0.90;;;0.90;;
673;SDS011;319;48.764;9.174;2024-02-16T10:33:59;0.80;;;0.80;;
673;SDS011;319;48.764;9.174;2024-02-16T10:36:31;0.80;;;0.80;;
673;SDS011;319;48.764;9.174;2024-02-16T10:38:59;0.80;;;0.80;;
673;SDS011;319;48.764;9.174;2024-02-16T10:41:33;0.90;;;0.90;;
673;SDS011;319;48.764;9.174;2024-02-16T10:44:01;0.90;;;0.90;;
673;SDS011;319;48.764;9.174;2024-02-16T10:46:34;0.90;;;0.90;;
673;SDS011;319;48.764;9.174;2024-02-16T10:49:01;0.90;;;0.90;;
673;SDS011;319;48.764;9.174;2024-02-16T10:51:31;0.90;;;0.90;;
673;SDS011;319;48.764;9.174;2024-02-16T10:54:01;0.90;;;0.90;;
673;SDS011;319;48.764;9.174;2024-02-16T10:56:34;0.90;;;0.90;;
673;SDS011;319;48.764;9.174;2024-02-16T10:59:05;0.90;;;0.90;;
673;SDS011;319;48.764;9.174;2024-02-16T11:01:37;0.90;;;0.90;;
673;SDS011;319;48.764;9.174;2024-02-16T11:04:04;0.90;;;0.90;;
673;SDS011;319;48.764;9.174;2024-02-16T11:06:44;0.90;;;0.90;;
673;SDS011;319;48.764;9.174;2024-02-16T11:09:22;0.90;;;0.90;;
673;SDS011;319;48.764;9.174;2024-02-16T11:11:53;0.97;;;0.97;;
673;SDS011;319;48.764;9.174;2024-02-16T11:14:21;0.90;;;0.90;;
673;SDS011;319;48.764;9.174;2024-02-16T11:16:49;0.90;;;0.90;;
673;SDS011;319;48.764;9.174;2024-02-16T11:19:20;0.90;;;0.90;;
673;SDS011;319;48.764;9.174;2024-02-16T11:21:55;0.90;;;0.90;;
673;SDS011;319;48.764;9.174;2024-02-16T11:24:29;0.90;;;0.90;;
673;SDS011;319;48.764;9.174;2024-02-16T11:27:00;0.80;;;0.80;;
673;SDS011;319;48.764;9.174;2024-02-16T11:29:29;0.90;;;0.90;;
673;SDS011;319;48.764;9.174;2024-02-16T11:31:58;0.80;;;0.80;;
673;SDS011;319;48.764;9.174;2024-02-16T11:34:27;0.90;;;0.90;;
673;SDS011;319;48.764;9.174;2024-02-16T11:36:55;0.90;;;0.90;;
673;SDS011;319;48.764;9.174;2024-02-16T11:39:23;0.87;;;0.87;;
673;SDS011;319;48.764;9.174;2024-02-16T11:42:00;0.90;;;0.90;;
673;SDS011;319;48.764;9.174;2024-02-16T11:44:30;0.90;;;0.90;;
673;SDS011;319;48.764;9.174;2024-02-16T11:46:59;0.90;;;0.90;;
673;SDS011;319;48.764;9.174;2024-02-16T11:49:27;0.90;;;0.90;;
673;SDS011;319;48.764;9.174;2024-02-16T11:51:55;0.90;;;0.90;;
673;SDS011;319;48.764;9.174;2024-02-16T11:54:22;0.90;;;0.90;;
673;SDS011;319;48.764;9.174;2024-02-16T11:56:49;0.90;;;0.90;;
673;SDS011;319;48.764;9.174;2024-02-16T11:59:19;0.80;;;0.80;;
673;SDS011;319;48.764;9.174;2024-02-16T12:01:50;0.80;;;0.80;;
673;SDS011;319;48.764;9.174;2024-02-16T12:04:21;0.90;;;0.90;;
673;SDS011;319;48.764;9.174;2024-02-16T12:06:53;0.90;;;0.90;;
673;SDS011;319;48.764;9.174;2024-02-16T12:09:22;0.90;;;0.90;;
673;SDS011;319;48.764;9.174;2024-02-16T12:11:50;0.90;;;0.90;;
673;SDS011;319;48.764;9.174;2024-02-16T12:14:21;0.90;;;0.90;;
673;SDS011;319;48.764;9.174;2024-02-16T12:16:49;1.40;;;1.40;;
673;SDS011;319;48.764;9.174;2024-02-16T12:19:16;2.10;;;2.10;;
673;SDS011;319;48.764;9.174;2024-02-16T12:21:48;0.90;;;0.90;;
673;SDS011;319;48.764;9.174;2024-02-16T12:24:15;0.90;;;0.90;;
673;SDS011;319;48.764;9.174;2024-02-16T12:26:45;0.80;;;0.80;;
673;SDS011;319;48.764;9.174;2024-02-16T12:29:12;4.63;;;4.40;;
673;SDS011;319;48.764;9.174;2024-02-16T12:31:41;0.90;;;0.90;;
673;SDS011;319;48.764;9.174;2024-02-16T12:34:08;0.90;;;0.90;;
673;SDS011;319;48.764;9.174;2024-02-16T12:36:36;6.27;;;6.10;;
673;SDS011;319;48.764;9.174;2024-02-16T12:39:03;2.90;;;2.80;;
673;SDS011;319;48.764;9.174;2024-02-16T12:41:31;2.77;;;2.70;;
673;SDS011;319;48.764;9.174;2024-02-16T12:44:00;0.90;;;0.90;;
673;SDS011;319;48.764;9.174;2024-02-16T12:46:31;0.90;;;0.90;;
673;SDS011;319;48.764;9.174;2024-02-16T12:48:59;0.80;;;0.80;;
673;SDS011;319;48.764;9.174;2024-02-16T12:51:26;0.90;;;0.90;;
673;SDS011;319;48.764;9.174;2024-02-16T12:53:53;0.80;;;0.80;;
673;SDS011;319;48.764;9.174;2024-02-16T12:56:20;0.90;;;0.90;;
673;SDS011;319;48.764;9.174;2024-02-16T12:58:47;0.90;;;0.90;;
673;SDS011;319;48.764;9.174;2024-02-16T13:01:14;0.90;;;0.90;;
673;SDS011;319;48.764;9.174;2024-02-16T13:03:43;0.90;;;0.90;;
673;SDS011;319;48.764;9.174;2024-02-16T13:06:11;0.90;;;0.90;;
673;SDS011;319;48.764;9.174;2024-02-16T13:08:38;0.80;;;0.80;;
673;SDS011;319;48.764;9.174;2024-02-16T13:11:05;0.90;;;0.90;;
673;SDS011;319;48.764;9.174;2024-02-16T13:13:33;0.90;;;0.90;;
673;SDS011;319;48.764;9.174;2024-02-16T13:16:00;0.90;;;0.90;;
673;SDS011;319;48.764;9.174;2024-02-16T13:18:27;0.90;;;0.90;;
673;SDS011;319;48.764;9.174;2024-02-16T13:20:54;0.90;;;0.90;;
673;SDS011;319;48.764;9.174;2024-02-16T13:23:22;1.00;;;1.00;;
673;SDS011;319;48.764;9.174;2024-02-16T13:25:49;1.00;;;1.00;;
673;SDS011;319;48.764;9.174;2024-02-16T13:28:16;0.90;;;0.90;;
673;SDS011;319;48.764;9.174;2024-02-16T13:30:43;0.90;;;0.90;;
673;SDS011;319;48.764;9.174;2024-02-16T13:33:10;0.90;;;0.90;;
673;SDS011;319;48.764;9.174;2024-02-16T13:35:37;0.80;;;0.80;;
673;SDS011;319;48.764;9.174;2024-02-16T13:38:04;0.87;;;0.87;;
673;SDS011;319;48.764;9.174;2024-02-16T13:40:32;0.90;;;0.90;;
673;SDS011;319;48.764;9.174;2024-02-16T13:43:00;0.90;;;0.90;;
673;SDS011;319;48.764;9.174;2024-02-16T13:45:29;0.83;;;0.83;;
673;SDS011;319;48.764;9.174;2024-02-16T13:48:14;0.90;;;0.90;;
673;SDS011;319;48.764;9.174;2024-02-16T13:50:40;0.90;;;0.90;;
673;SDS011;319;48.764;9.174;2024-02-16T13:53:09;0.90;;;0.90;;
673;SDS011;319;48.764;9.174;2024-02-16T13:55:39;0.90;;;0.90;;
673;SDS011;319;48.764;9.174;2024-02-16T13:58:07;0.90;;;0.90;;
673;SDS011;319;48.764;9.174;2024-02-16T14:00:34;0.90;;;0.90;;
673;SDS011;319;48.764;9.174;2024-02-16T14:03:01;0.90;;;0.90;;
673;SDS011;319;48.764;9.174;2024-02-16T14:05:29;0.90;;;0.90;;
673;SDS011;319;48.764;9.174;2024-02-16T14:07:56;1.00;;;1.00;;
673;SDS011;319;48.764;9.174;2024-02-16T14:10:23;0.90;;;0.90;;
673;SDS011;319;48.764;9.174;2024-02-16T14:12:51;0.90;;;0.90;;
673;SDS011;319;48.764;9.174;2024-02-16T14:15:18;1.00;;;1.00;;
673;SDS011;319;48.764;9.174;2024-02-16T14:17:45;0.80;;;0.80;;
673;SDS011;319;48.764;9.174;2024-02-16T14:20:12;0.90;;;0.90;;
673;SDS011;319;48.764;9.174;2024-02-16T14:22:39;0.90;;;0.90;;
673;SDS011;319;48.764;9.174;2024-02-16T14:25:06;0.90;;;0.90;;
673;SDS011;319;48.764;9.174;2024-02-16T14:27:35;0.90;;;0.90;;
673;SDS011;319;48.764;9.174;2024-02-16T14:30:04;0.90;;;0.90;;
673;SDS011;319;48.764;9.174;2024-02-16T14:32:32;0.87;;;0.87;;
673;SDS011;319;48.764;9.174;2024-02-16T14:34:59;0.90;;;0.90;;
673;SDS011;319;48.764;9.174;2024-02-16T14:37:27;0.90;;;0.90;;
673;SDS011;319;48.764;9.174;2024-02-16T14:39:57;0.90;;;0.90;;
673;SDS011;319;48.764;9.174;2024-02-16T14:42:25;0.80;;;0.80;;
673;SDS011;319;48.764;9.174;2024-02-16T14:44:53;0.80;;;0.80;;
673;SDS011;319;48.764;9.174;2024-02-16T14:47:21;0.90;;;0.90;;
673;SDS011;319;48.764;9.174;2024-02-16T14:49:51;0.90;;;0.90;;
673;SDS011;319;48.764;9.174;2024-02-16T14:52:18;0.90;;;0.90;;
673;SDS011;319;48.764;9.174;2024-02-16T14:54:45;0.90;;;0.90;;
673;SDS011;319;48.764;9.174;2024-02-16T14:57:12;0.90;;;0.90;;
673;SDS011;319;48.764;9.174;2024-02-16T14:59:39;0.90;;;0.90;;
673;SDS011;319;48.764;9.174;2024-02-16T15:02:12;0.90;;;0.90;;
673;SDS011;319;48.764;9.174;2024-02-16T15:04:42;0.90;;;0.90;;
673;SDS011;319;48.764;9.174;2024-02-16T15:07:09;0.90;;;0.90;;
673;SDS011;319;48.764;9.174;2024-02-16T15:09:36;0.90;;;0.90;;
673;SDS011;319;48.764;9.174;2024-02-16T15:12:07;0.90;;;0.90;;
673;SDS011;319;48.764;9.174;2024-02-16T15:14:34;0.90;;;0.90;;
673;SDS011;319;48.764;9.174;2024-02-16T15:17:01;0.90;;;0.90;;
673;SDS011;319;48.764;9.174;2024-02-16T15:19:30;0.90;;;0.90;;
673;SDS011;319;48.764;9.174;2024-02-16T15:21:58;1.00;;;1.00;;
673;SDS011;319;48.764;9.174;2024-02-16T15:24:25;0.90;;;0.90;;
673;SDS011;319;48.764;9.174;2024-02-16T15:26:52;0.90;;;0.90;;
673;SDS011;319;48.764;9.174;2024-02-16T15:29:18;0.90;;;0.90;;
673;SDS011;319;48.764;9.174;2024-02-16T15:31:45;0.90;;;0.90;;
673;SDS011;319;48.764;9.174;2024-02-16T15:34:12;0.93;;;0.93;;
673;SDS011;319;48.764;9.174;2024-02-16T15:36:39;0.87;;;0.87;;
673;SDS011;319;48.764;9.174;2024-02-16T15:39:08;0.83;;;0.83;;
673;SDS011;319;48.764;9.174;2024-02-16T15:41:35;0.90;;;0.90;;
673;SDS011;319;48.764;9.174;2024-02-16T15:44:02;1.00;;;1.00;;
673;SDS011;319;48.764;9.174;2024-02-16T15:46:30;0.90;;;0.90;;
673;SDS011;319;48.764;9.174;2024-02-16T15:48:57;0.90;;;0.90;;